Time;durP1;ratioP1;P1;durP2;ratioP2;P2;SDS_P1;SDS_P2;PMS_P1;PMS_P2;Temp;Humidity;BMP_temperature;BMP_pressure;BME280_temperature;BME280_humidity;BME280_pressure;Samples;Min_cycle;Max_cycle;Signal;HPM_P1;HPM_P2
2021/05/10 00:00:07;;;;;;;11.13;7.55;;;8.50;60.20;;;;;;5117232;28;20039;-41
2021/05/10 00:02:33;;;;;;;10.05;6.53;;;8.40;60.30;;;;;;5117077;28;20112;-41
2021/05/10 00:04:58;;;;;;;9.27;5.47;;;8.40;60.30;;;;;;5116973;28;20024;-41
2021/05/10 00:07:24;;;;;;;9.43;5.50;;;8.40;60.30;;;;;;5116893;28;20023;-44
2021/05/10 00:09:50;;;;;;;8.45;5.50;;;8.30;60.30;;;;;;5116985;28;20061;-43
2021/05/10 00:12:16;;;;;;;10.45;5.38;;;8.30;60.50;;;;;;5117117;28;20028;-42
2021/05/10 00:14:48;;;;;;;9.80;4.82;;;8.30;60.60;;;;;;5116898;28;20111;-44
2021/05/10 00:17:13;;;;;;;8.35;5.00;;;8.30;60.70;;;;;;5117009;28;20331;-42
2021/05/10 00:19:39;;;;;;;7.38;4.53;;;8.30;60.60;;;;;;5116871;28;20039;-41
2021/05/10 00:22:05;;;;;;;9.18;4.93;;;8.20;60.50;;;;;;5116694;28;20032;-41
2021/05/10 00:24:31;;;;;;;7.50;4.85;;;8.20;60.70;;;;;;5116948;28;20030;-42
2021/05/10 00:26:57;;;;;;;14.25;4.65;;;8.20;60.90;;;;;;5116590;28;20024;-41
2021/05/10 00:29:22;;;;;;;6.22;4.22;;;8.20;60.90;;;;;;5116488;28;20081;-42
2021/05/10 00:31:48;;;;;;;6.82;4.60;;;8.10;61.40;;;;;;5116423;28;20158;-41
2021/05/10 00:34:15;;;;;;;8.32;4.60;;;8.10;60.90;;;;;;5116555;28;20038;-41
2021/05/10 00:36:41;;;;;;;8.32;4.35;;;8.10;61.10;;;;;;5116558;28;20056;-41
2021/05/10 00:39:07;;;;;;;6.70;4.28;;;8.10;61.10;;;;;;5116202;28;20403;-44
2021/05/10 00:41:34;;;;;;;8.82;4.93;;;8.00;61.00;;;;;;5116453;28;20054;-42
2021/05/10 00:44:00;;;;;;;6.00;3.97;;;8.00;61.30;;;;;;5116659;28;20067;-42
2021/05/10 00:46:26;;;;;;;7.70;4.43;;;7.90;61.40;;;;;;5116183;28;20051;-42
2021/05/10 00:48:52;;;;;;;6.28;3.90;;;7.90;61.40;;;;;;5115874;28;20108;-41
2021/05/10 00:51:18;;;;;;;6.57;4.60;;;7.90;61.50;;;;;;5116122;28;20039;-42
2021/05/10 00:53:43;;;;;;;5.88;3.85;;;7.80;61.70;;;;;;5116019;28;20460;-41
2021/05/10 00:56:10;;;;;;;6.95;4.18;;;7.80;61.80;;;;;;5116344;28;20031;-43
2021/05/10 00:58:35;;;;;;;7.22;4.40;;;7.80;61.90;;;;;;5115805;28;20028;-42
2021/05/10 01:01:01;;;;;;;5.63;3.80;;;7.80;62.00;;;;;;5116263;28;20042;-41
2021/05/10 01:03:27;;;;;;;7.18;4.22;;;7.80;62.00;;;;;;5115675;28;20024;-42
2021/05/10 01:05:53;;;;;;;5.72;4.10;;;7.80;62.00;;;;;;5115986;28;20036;-42
2021/05/10 01:08:18;;;;;;;13.82;4.00;;;7.80;62.00;;;;;;5115997;28;20055;-44
2021/05/10 01:10:45;;;;;;;7.18;4.13;;;7.80;62.10;;;;;;5115957;28;20057;-43
2021/05/10 01:13:12;;;;;;;8.77;4.68;;;7.70;62.20;;;;;;5115947;28;20036;-45
2021/05/10 01:15:39;;;;;;;5.70;4.03;;;7.70;62.40;;;;;;5115897;28;20419;-41
2021/05/10 01:18:05;;;;;;;9.40;5.05;;;7.70;62.50;;;;;;5115703;28;20427;-42
2021/05/10 01:20:33;;;;;;;9.68;4.93;;;7.80;62.60;;;;;;5116040;28;20039;-43
2021/05/10 01:22:59;;;;;;;7.45;4.88;;;7.80;62.60;;;;;;5115574;28;20404;-42
2021/05/10 01:25:29;;;;;;;6.78;4.00;;;7.80;62.60;;;;;;5116105;28;20031;-43
2021/05/10 01:27:57;;;;;;;7.25;4.43;;;7.80;62.70;;;;;;5115675;28;20038;-43
2021/05/10 01:30:33;;;;;;;5.50;4.53;;;7.80;62.80;;;;;;5115769;28;20036;-42
2021/05/10 01:33:00;;;;;;;10.00;5.80;;;7.70;62.80;;;;;;5115674;28;20027;-44
2021/05/10 01:35:53;;;;;;;8.63;5.32;;;7.70;63.00;;;;;;5116116;28;20028;-43
2021/05/10 01:38:19;;;;;;;7.50;4.20;;;7.70;63.20;;;;;;5110414;28;20089;-42
2021/05/10 01:40:48;;;;;;;5.80;4.13;;;7.70;63.10;;;;;;5115682;28;20032;-43
2021/05/10 01:43:18;;;;;;;6.63;5.05;;;7.70;63.20;;;;;;5115336;28;20031;-45
2021/05/10 01:45:45;;;;;;;10.85;4.88;;;7.70;63.50;;;;;;5116091;28;20414;-44
2021/05/10 01:48:12;;;;;;;6.25;4.18;;;7.60;63.40;;;;;;5115702;28;20135;-43
2021/05/10 01:50:39;;;;;;;6.95;3.97;;;7.60;63.50;;;;;;5115944;28;20032;-44
2021/05/10 01:53:06;;;;;;;9.45;5.57;;;7.60;63.60;;;;;;5115374;28;20028;-42
2021/05/10 01:55:33;;;;;;;7.72;5.03;;;7.60;63.80;;;;;;5116054;28;20036;-42
2021/05/10 01:58:00;;;;;;;7.15;4.50;;;7.60;63.90;;;;;;5115477;28;20407;-42
2021/05/10 02:00:31;;;;;;;6.45;4.50;;;7.60;64.00;;;;;;5119291;28;20315;-42
2021/05/10 02:03:05;;;;;;;8.32;5.40;;;7.60;64.10;;;;;;5101090;28;20030;-43
2021/05/10 02:05:31;;;;;;;8.30;4.55;;;7.50;64.10;;;;;;5119660;28;20034;-42
2021/05/10 02:07:59;;;;;;;7.53;5.05;;;7.50;64.20;;;;;;5119408;28;20105;-43
2021/05/10 02:10:33;;;;;;;11.15;5.63;;;7.50;64.30;;;;;;5119181;28;20081;-42
2021/05/10 02:13:00;;;;;;;11.85;5.43;;;7.40;64.30;;;;;;5119039;28;20027;-42
2021/05/10 02:15:28;;;;;;;10.05;5.40;;;7.40;64.40;;;;;;5118986;28;20024;-42
2021/05/10 02:17:54;;;;;;;10.88;5.13;;;7.40;64.60;;;;;;5119167;28;20065;-43
2021/05/10 02:20:22;;;;;;;9.95;5.43;;;7.30;64.60;;;;;;5118966;28;20039;-43
2021/05/10 02:22:58;;;;;;;7.57;4.45;;;7.30;64.70;;;;;;5100951;28;20031;-42
2021/05/10 02:25:29;;;;;;;12.43;5.32;;;7.30;64.90;;;;;;5119012;28;20055;-42
2021/05/10 02:27:55;;;;;;;22.63;6.07;;;7.30;65.00;;;;;;5118694;28;20024;-44
2021/05/10 02:30:23;;;;;;;14.40;5.10;;;7.30;65.00;;;;;;5118650;28;20110;-42
2021/05/10 02:32:50;;;;;;;9.88;5.38;;;7.30;65.10;;;;;;5119176;28;20112;-44
2021/05/10 02:35:16;;;;;;;9.40;5.10;;;7.30;65.30;;;;;;5100628;28;20460;-42
2021/05/10 02:37:42;;;;;;;11.77;5.10;;;7.30;65.30;;;;;;5118640;28;20177;-42
2021/05/10 02:40:09;;;;;;;9.18;4.60;;;7.30;65.50;;;;;;5118538;28;20031;-42
2021/05/10 02:42:35;;;;;;;11.18;5.22;;;7.30;65.50;;;;;;5118790;28;20038;-44
2021/05/10 02:45:01;;;;;;;12.60;5.10;;;7.20;65.50;;;;;;5118625;28;20027;-43
2021/05/10 02:47:27;;;;;;;6.93;4.63;;;7.20;65.60;;;;;;5118876;28;20310;-44
2021/05/10 02:49:54;;;;;;;14.05;5.68;;;7.20;65.70;;;;;;5118305;28;20032;-44
2021/05/10 02:52:20;;;;;;;30.10;8.40;;;7.30;65.80;;;;;;5118485;28;20095;-42
2021/05/10 02:54:45;;;;;;;13.13;6.07;;;7.30;65.90;;;;;;5118415;28;20372;-42
2021/05/10 02:57:11;;;;;;;9.23;5.10;;;7.30;66.00;;;;;;5118551;28;20438;-42
2021/05/10 02:59:37;;;;;;;11.13;5.43;;;7.30;66.20;;;;;;5117898;28;20552;-42
2021/05/10 03:02:03;;;;;;;9.38;5.57;;;7.30;66.30;;;;;;5118364;28;20265;-42
2021/05/10 03:04:28;;;;;;;8.80;5.68;;;7.30;66.50;;;;;;5118075;28;20038;-44
2021/05/10 03:06:54;;;;;;;9.18;5.15;;;7.30;66.90;;;;;;5118459;28;20070;-43
2021/05/10 03:09:20;;;;;;;10.13;5.82;;;7.30;66.90;;;;;;5117761;28;20038;-44
2021/05/10 03:11:46;;;;;;;11.15;5.68;;;7.30;67.20;;;;;;5117559;28;20028;-41
2021/05/10 03:14:11;;;;;;;7.35;4.82;;;7.40;67.90;;;;;;5117977;28;20024;-45
2021/05/10 03:16:37;;;;;;;12.13;6.47;;;7.40;67.50;;;;;;5118479;28;20282;-42
2021/05/10 03:19:09;;;;;;;11.43;8.00;;;7.50;67.70;;;;;;5117683;28;20415;-43
2021/05/10 03:21:39;;;;;;;11.98;8.07;;;7.50;68.00;;;;;;5117779;28;20038;-42
2021/05/10 03:24:08;;;;;;;13.17;7.93;;;7.60;68.10;;;;;;5117800;28;20038;-42
2021/05/10 03:26:34;;;;;;;12.02;7.70;;;7.60;68.40;;;;;;5117681;28;20063;-44
2021/05/10 03:29:01;;;;;;;12.00;7.53;;;7.60;68.70;;;;;;5117424;28;20035;-42
2021/05/10 03:31:27;;;;;;;20.75;8.45;;;7.70;69.00;;;;;;5117473;28;20403;-44
2021/05/10 03:33:53;;;;;;;11.27;7.50;;;7.70;69.30;;;;;;5117312;28;20264;-42
2021/05/10 03:36:18;;;;;;;13.15;6.80;;;7.80;69.60;;;;;;5117286;28;20051;-42
2021/05/10 03:38:44;;;;;;;13.80;8.88;;;7.80;69.60;;;;;;5117215;28;20031;-43
2021/05/10 03:41:10;;;;;;;14.45;8.88;;;7.90;69.80;;;;;;5117478;28;20050;-42
2021/05/10 03:43:35;;;;;;;18.80;8.95;;;8.00;70.00;;;;;;5117284;28;20103;-42
2021/05/10 03:46:01;;;;;;;14.95;7.85;;;8.10;70.30;;;;;;5117343;28;20411;-42
2021/05/10 03:48:27;;;;;;;14.90;8.35;;;8.10;70.40;;;;;;5116983;28;20026;-43
2021/05/10 03:50:52;;;;;;;16.15;10.93;;;8.20;70.50;;;;;;5117436;28;20035;-44
2021/05/10 03:53:19;;;;;;;23.20;10.82;;;8.30;70.40;;;;;;5117197;28;20028;-42
2021/05/10 03:55:45;;;;;;;18.30;10.95;;;8.40;70.60;;;;;;5117070;28;20035;-42
2021/05/10 03:58:11;;;;;;;18.33;11.15;;;8.50;70.60;;;;;;5117116;28;20031;-42
2021/05/10 04:00:37;;;;;;;14.10;8.73;;;8.60;70.80;;;;;;5116907;28;20416;-41
2021/05/10 04:03:04;;;;;;;13.27;7.75;;;8.70;70.60;;;;;;5116986;28;20070;-42
2021/05/10 04:13:50;;;;;;;16.88;8.57;;;9.20;70.70;;;;;;5033925;28;20084;-42
2021/05/10 04:16:15;;;;;;;9.70;7.45;;;9.30;70.70;;;;;;5086179;28;20074;-42
2021/05/10 04:18:41;;;;;;;10.95;6.40;;;9.40;70.60;;;;;;5116662;28;20059;-43
2021/05/10 04:21:06;;;;;;;10.80;7.00;;;9.60;70.40;;;;;;5117055;28;20368;-42
2021/05/10 04:23:32;;;;;;;9.20;6.65;;;9.70;70.10;;;;;;5116491;28;20111;-42
2021/05/10 04:25:58;;;;;;;8.13;5.47;;;9.80;69.80;;;;;;5116922;28;20407;-42
2021/05/10 04:28:24;;;;;;;9.75;5.53;;;9.90;69.30;;;;;;5116465;28;20293;-42
2021/05/10 04:30:52;;;;;;;7.72;4.95;;;10.00;68.90;;;;;;5116793;28;20034;-42
2021/05/10 04:33:28;;;;;;;8.57;4.82;;;10.20;68.60;;;;;;5116285;28;20412;-42
2021/05/10 04:35:54;;;;;;;9.73;5.90;;;10.30;68.10;;;;;;5116837;28;20042;-42
2021/05/10 04:38:20;;;;;;;9.60;6.25;;;10.50;67.90;;;;;;5115639;28;20055;-42
2021/05/10 04:40:46;;;;;;;7.15;4.93;;;10.60;67.60;;;;;;5116635;28;20046;-42
2021/05/10 04:43:11;;;;;;;25.13;10.40;;;10.70;67.20;;;;;;5097942;28;20039;-42
2021/05/10 04:45:37;;;;;;;23.75;9.48;;;10.90;66.10;;;;;;5116445;28;20122;-42
2021/05/10 04:48:04;;;;;;;45.05;15.45;;;11.00;65.50;;;;;;5097933;28;20316;-43
2021/05/10 04:50:30;;;;;;;66.55;13.10;;;11.10;65.00;;;;;;5116238;28;20038;-43
2021/05/10 04:52:56;;;;;;;21.50;8.30;;;11.20;64.30;;;;;;5116202;28;20365;-43
2021/05/10 04:55:22;;;;;;;14.68;6.28;;;11.30;63.70;;;;;;5115955;28;20050;-42
2021/05/10 04:57:48;;;;;;;11.65;6.28;;;11.50;63.40;;;;;;5116357;28;20027;-42
2021/05/10 05:00:15;;;;;;;13.15;5.95;;;11.60;63.60;;;;;;5115969;28;20031;-43
2021/05/10 05:02:41;;;;;;;19.20;7.30;;;11.70;63.00;;;;;;5116229;28;20088;-44
2021/05/10 05:05:09;;;;;;;12.45;6.97;;;11.80;62.40;;;;;;5116100;28;20104;-43
2021/05/10 05:07:35;;;;;;;12.75;6.82;;;11.90;62.70;;;;;;5115876;28;20106;-44
2021/05/10 05:10:02;;;;;;;12.77;7.40;;;12.10;62.50;;;;;;5115706;28;20058;-45
2021/05/10 05:12:27;;;;;;;11.18;6.70;;;12.10;62.30;;;;;;5116182;28;20076;-44
2021/05/10 05:14:53;;;;;;;11.05;6.47;;;12.30;61.10;;;;;;5112503;28;20039;-42
2021/05/10 05:17:19;;;;;;;13.70;8.25;;;12.40;61.30;;;;;;5116105;28;20043;-43
2021/05/10 05:19:44;;;;;;;12.40;7.00;;;12.40;61.00;;;;;;5115406;28;20036;-42
2021/05/10 05:22:10;;;;;;;11.07;7.07;;;12.50;60.90;;;;;;5115873;28;20505;-42
2021/05/10 05:24:36;;;;;;;12.30;7.13;;;12.60;60.70;;;;;;5115413;28;20047;-42
2021/05/10 05:27:02;;;;;;;13.70;6.25;;;12.60;60.50;;;;;;5116044;28;20028;-42
2021/05/10 05:29:27;;;;;;;10.00;5.88;;;12.70;60.50;;;;;;5115123;28;20089;-41
2021/05/10 05:31:54;;;;;;;10.75;6.18;;;12.70;60.50;;;;;;5115541;28;20373;-42
2021/05/10 05:34:20;;;;;;;12.85;6.38;;;12.80;60.10;;;;;;5116982;28;20030;-42
2021/05/10 05:36:46;;;;;;;10.95;6.00;;;12.80;59.80;;;;;;5119613;28;20346;-43
2021/05/10 05:39:12;;;;;;;10.77;5.85;;;12.90;59.60;;;;;;5119443;28;20057;-42
2021/05/10 05:41:38;;;;;;;8.80;5.65;;;12.90;59.20;;;;;;5118897;28;20044;-42
2021/05/10 05:44:05;;;;;;;8.05;5.40;;;12.90;58.70;;;;;;5118749;28;20027;-43
2021/05/10 05:46:38;;;;;;;9.63;5.55;;;12.90;58.30;;;;;;5119939;28;20027;-42
2021/05/10 05:49:04;;;;;;;7.28;5.38;;;13.00;58.10;;;;;;5119130;28;20327;-43
2021/05/10 05:51:29;;;;;;;8.70;5.68;;;13.00;57.50;;;;;;5119580;28;20067;-44
2021/05/10 05:53:55;;;;;;;9.10;5.50;;;13.10;56.70;;;;;;5119152;28;20369;-44
2021/05/10 05:56:22;;;;;;;12.32;6.15;;;13.10;55.70;;;;;;5119521;28;20035;-45
2021/05/10 05:58:51;;;;;;;9.65;6.47;;;13.10;55.80;;;;;;5118774;28;20027;-43
2021/05/10 06:01:16;;;;;;;9.60;5.90;;;13.20;54.90;;;;;;5128035;27;20034;-43
2021/05/10 06:03:42;;;;;;;11.80;5.63;;;13.20;54.40;;;;;;5139448;27;20039;-44
2021/05/10 06:06:10;;;;;;;10.65;4.95;;;13.30;54.20;;;;;;5140152;27;20038;-44
2021/05/10 06:08:36;;;;;;;11.75;5.45;;;13.30;53.40;;;;;;5139255;27;20023;-45
2021/05/10 06:11:03;;;;;;;9.15;4.68;;;13.40;53.20;;;;;;5139142;27;20386;-43
2021/05/10 06:13:29;;;;;;;9.93;5.00;;;13.50;53.00;;;;;;5139492;27;20128;-43
2021/05/10 06:15:55;;;;;;;9.65;4.13;;;13.60;52.50;;;;;;5139927;27;20027;-45
2021/05/10 06:18:21;;;;;;;10.95;4.78;;;13.60;50.80;;;;;;5138312;27;20031;-43
2021/05/10 06:20:46;;;;;;;8.77;4.30;;;13.70;50.80;;;;;;5139163;27;20031;-42
2021/05/10 06:23:12;;;;;;;17.08;7.20;;;13.80;50.70;;;;;;5138941;27;20050;-44
2021/05/10 06:25:38;;;;;;;12.32;6.65;;;13.90;50.10;;;;;;5139496;27;20168;-43
2021/05/10 06:28:04;;;;;;;11.98;6.35;;;13.90;49.30;;;;;;5139335;27;20019;-44
2021/05/10 06:30:30;;;;;;;19.05;6.20;;;14.00;49.70;;;;;;5120937;27;20400;-42
2021/05/10 06:32:55;;;;;;;17.92;6.13;;;14.00;49.30;;;;;;5139689;27;20160;-43
2021/05/10 06:35:22;;;;;;;11.45;5.85;;;14.10;49.20;;;;;;5139274;27;20027;-44
2021/05/10 06:37:47;;;;;;;12.52;5.95;;;14.20;48.80;;;;;;5139110;27;20466;-42
2021/05/10 06:40:13;;;;;;;14.07;6.75;;;14.20;48.80;;;;;;5139108;27;20059;-46
2021/05/10 06:42:39;;;;;;;12.98;5.60;;;14.20;46.90;;;;;;5139365;27;20035;-44
2021/05/10 06:45:07;;;;;;;13.23;5.72;;;14.30;46.50;;;;;;5138037;27;20038;-43
2021/05/10 06:47:34;;;;;;;16.13;6.47;;;14.30;46.80;;;;;;5138964;27;20345;-44
2021/05/10 06:50:00;;;;;;;14.15;6.40;;;14.40;46.80;;;;;;5138956;27;20031;-43
2021/05/10 06:52:26;;;;;;;10.68;5.80;;;14.40;46.30;;;;;;5138590;27;20015;-43
2021/05/10 06:54:51;;;;;;;10.63;5.35;;;14.40;46.30;;;;;;5138553;27;20349;-43
2021/05/10 06:57:17;;;;;;;12.13;5.60;;;14.50;44.90;;;;;;5138931;27;20079;-42
2021/05/10 06:59:44;;;;;;;13.25;5.63;;;14.50;44.40;;;;;;5138468;27;20031;-44
2021/05/10 07:02:11;;;;;;;14.65;6.03;;;14.50;45.60;;;;;;5130309;27;20035;-44
2021/05/10 07:04:37;;;;;;;19.25;5.68;;;14.60;45.00;;;;;;5117277;28;20047;-42
2021/05/10 07:07:02;;;;;;;11.15;4.40;;;14.60;44.60;;;;;;5117757;28;20055;-43
2021/05/10 07:09:28;;;;;;;9.30;3.15;;;14.70;44.60;;;;;;5117766;28;20027;-43
2021/05/10 07:11:54;;;;;;;8.70;2.80;;;14.70;43.10;;;;;;5117351;28;20030;-42
2021/05/10 07:14:19;;;;;;;16.52;3.38;;;14.80;42.40;;;;;;5117505;28;20341;-45
2021/05/10 07:16:45;;;;;;;10.32;3.25;;;14.80;40.50;;;;;;5117466;28;20024;-42
2021/05/10 07:19:11;;;;;;;6.13;3.00;;;14.80;39.80;;;;;;5113674;28;20099;-41
2021/05/10 07:21:37;;;;;;;5.70;2.95;;;14.90;39.50;;;;;;5116734;28;20035;-42
2021/05/10 07:24:03;;;;;;;12.65;4.53;;;14.80;39.70;;;;;;5116710;28;20110;-42
2021/05/10 07:26:29;;;;;;;8.55;3.70;;;14.90;39.50;;;;;;5117659;28;20157;-43
2021/05/10 07:28:55;;;;;;;5.43;2.80;;;14.90;40.20;;;;;;5116708;28;20382;-42
2021/05/10 07:31:20;;;;;;;11.35;3.28;;;15.00;39.90;;;;;;5117490;28;20115;-42
2021/05/10 07:33:46;;;;;;;8.10;2.70;;;15.00;38.90;;;;;;5116389;28;20102;-42
2021/05/10 07:36:12;;;;;;;9.38;3.53;;;15.00;39.20;;;;;;5116982;28;20032;-43
2021/05/10 07:38:37;;;;;;;5.55;3.15;;;15.00;39.50;;;;;;5116136;28;20164;-42
2021/05/10 07:41:04;;;;;;;7.07;3.35;;;15.10;39.10;;;;;;5117291;28;20040;-42
2021/05/10 07:43:29;;;;;;;11.18;6.05;;;15.10;38.80;;;;;;5116330;28;20020;-44
2021/05/10 07:45:55;;;;;;;15.95;7.93;;;15.20;39.40;;;;;;5117301;28;20053;-42
2021/05/10 07:48:21;;;;;;;8.10;3.25;;;15.20;39.20;;;;;;5116279;28;20084;-43
2021/05/10 07:50:46;;;;;;;5.72;3.65;;;15.20;38.40;;;;;;5116877;28;20039;-42
2021/05/10 07:53:15;;;;;;;7.65;3.10;;;15.30;39.10;;;;;;5116246;28;20031;-44
2021/05/10 07:55:41;;;;;;;7.72;2.83;;;15.40;38.90;;;;;;5115097;28;20032;-43
2021/05/10 07:58:07;;;;;;;5.32;3.50;;;15.40;36.90;;;;;;5116252;28;20023;-42
2021/05/10 08:00:35;;;;;;;4.45;2.83;;;15.40;37.60;;;;;;5116887;28;20381;-43
2021/05/10 08:03:12;;;;;;;6.47;3.65;;;15.50;37.80;;;;;;5116749;28;20080;-43
2021/05/10 08:05:40;;;;;;;4.15;2.45;;;15.50;38.00;;;;;;5116898;28;20035;-41
2021/05/10 08:08:13;;;;;;;6.90;2.40;;;15.60;37.60;;;;;;5116249;28;20089;-42
2021/05/10 08:10:38;;;;;;;4.60;2.90;;;15.60;37.10;;;;;;5116542;28;20032;-42
2021/05/10 08:13:04;;;;;;;4.75;2.50;;;15.60;36.90;;;;;;5116415;28;20072;-42
2021/05/10 08:15:30;;;;;;;5.88;2.80;;;15.60;37.30;;;;;;5116620;28;20412;-43
2021/05/10 08:17:55;;;;;;;7.85;2.65;;;15.60;36.70;;;;;;5112054;28;20108;-42
2021/05/10 08:20:21;;;;;;;4.93;2.20;;;15.60;36.80;;;;;;5116157;28;20031;-41
2021/05/10 08:22:47;;;;;;;3.88;2.70;;;15.60;37.20;;;;;;5115848;28;20107;-42
2021/05/10 08:25:13;;;;;;;8.40;2.60;;;15.70;36.70;;;;;;5115975;28;20059;-42
2021/05/10 08:27:39;;;;;;;5.45;2.40;;;15.70;37.00;;;;;;5115983;28;20028;-43
2021/05/10 08:30:08;;;;;;;7.40;2.42;;;15.70;36.90;;;;;;5115668;28;20031;-41
2021/05/10 08:32:34;;;;;;;2.50;2.00;;;15.80;37.30;;;;;;5115338;28;20027;-41
2021/05/10 08:35:00;;;;;;;3.03;1.95;;;15.80;37.30;;;;;;5113995;28;20062;-40
2021/05/10 08:37:28;;;;;;;8.70;2.25;;;15.90;36.50;;;;;;5115524;28;20071;-39
2021/05/10 08:39:54;;;;;;;5.07;2.60;;;15.90;36.60;;;;;;5115781;28;20035;-40
2021/05/10 08:42:19;;;;;;;3.35;2.00;;;15.90;36.70;;;;;;5116012;28;20073;-39
2021/05/10 08:44:45;;;;;;;2.17;1.88;;;16.00;35.70;;;;;;5115396;28;20404;-40
2021/05/10 08:47:11;;;;;;;3.40;2.10;;;15.90;34.60;;;;;;5115526;28;20023;-40
2021/05/10 08:49:37;;;;;;;3.25;1.92;;;15.90;35.30;;;;;;5115594;28;20026;-41
2021/05/10 08:52:03;;;;;;;7.40;2.55;;;15.90;35.90;;;;;;5114875;28;20102;-41
2021/05/10 08:54:31;;;;;;;4.43;2.58;;;16.00;36.70;;;;;;5113803;28;20016;-40
2021/05/10 08:56:58;;;;;;;5.15;2.13;;;16.00;35.50;;;;;;5115524;28;20039;-40
2021/05/10 08:59:24;;;;;;;3.08;2.05;;;16.10;35.50;;;;;;5115281;28;20020;-41
2021/05/10 09:01:54;;;;;;;3.28;2.30;;;16.10;36.00;;;;;;5115544;28;20027;-42
2021/05/10 09:04:35;;;;;;;3.40;2.50;;;16.10;35.30;;;;;;5115226;28;20035;-41
2021/05/10 09:07:13;;;;;;;3.03;2.35;;;16.10;34.80;;;;;;5115361;28;20095;-42
2021/05/10 09:09:52;;;;;;;3.00;1.90;;;16.10;35.10;;;;;;5114165;28;20035;-41
2021/05/10 09:12:22;;;;;;;4.00;2.03;;;16.20;35.20;;;;;;5115152;28;20049;-40
2021/05/10 09:14:48;;;;;;;6.55;4.55;;;16.20;35.00;;;;;;5115416;28;20106;-41
2021/05/10 09:17:14;;;;;;;2.47;2.10;;;16.30;35.10;;;;;;5115377;28;20110;-40
2021/05/10 09:19:56;;;;;;;3.63;2.20;;;16.30;34.60;;;;;;5115095;28;20055;-41
2021/05/10 09:22:23;;;;;;;2.55;2.22;;;16.40;34.10;;;;;;5115186;28;20046;-40
2021/05/10 09:24:53;;;;;;;5.45;2.33;;;16.40;34.70;;;;;;5115055;28;20032;-40
2021/05/10 09:27:30;;;;;;;6.40;2.37;;;16.40;34.00;;;;;;5115518;28;20029;-41
2021/05/10 09:30:12;;;;;;;2.80;2.28;;;16.50;34.20;;;;;;5115492;28;20374;-40
2021/05/10 09:32:38;;;;;;;2.95;2.30;;;16.50;34.20;;;;;;5115646;28;20115;-41
2021/05/10 09:35:19;;;;;;;6.03;2.40;;;16.50;34.30;;;;;;5115382;28;20455;-42
2021/05/10 09:37:52;;;;;;;;;;;16.60;34.10;;;;;;5115374;28;20127;-41
2021/05/10 09:40:18;;;;;;;2.83;2.05;;;16.60;34.80;;;;;;5115377;28;19947;-41
2021/05/10 09:42:54;;;;;;;4.40;1.90;;;16.60;34.60;;;;;;5114760;28;20444;-40
2021/05/10 09:45:50;;;;;;;2.67;2.00;;;16.60;34.60;;;;;;5114776;28;20032;-40
2021/05/10 09:48:35;;;;;;;2.90;2.10;;;16.70;34.00;;;;;;5114873;28;20024;-40
2021/05/10 09:51:04;;;;;;;3.53;2.05;;;16.80;34.10;;;;;;5115506;28;20023;-41
2021/05/10 09:53:40;;;;;;;2.17;1.90;;;16.90;34.50;;;;;;5115889;28;20403;-41
2021/05/10 09:58:57;;;;;;;5.72;2.28;;;17.00;34.20;;;;;;5115255;28;20436;-40
2021/05/10 10:01:23;;;;;;;;;;;17.10;34.50;;;;;;5115827;28;20071;-41
2021/05/10 10:03:59;;;;;;;2.08;1.70;;;17.20;34.80;;;;;;5115402;28;19958;-43
2021/05/10 10:06:28;;;;;;;8.50;1.80;;;17.20;33.40;;;;;;5115185;28;20034;-41
2021/05/10 10:08:54;;;;;;;2.17;1.70;;;17.20;33.50;;;;;;5114477;28;20016;-42
2021/05/10 10:11:25;;;;;;;2.75;1.58;;;17.30;33.70;;;;;;5115018;28;20036;-42
2021/05/10 10:13:53;;;;;;;3.65;2.00;;;17.30;33.40;;;;;;5115018;28;20034;-40
2021/05/10 10:16:21;;;;;;;2.22;2.03;;;17.40;33.90;;;;;;5115440;28;20422;-42
2021/05/10 10:18:48;;;;;;;4.13;2.30;;;17.40;33.10;;;;;;5114992;28;20497;-42
2021/05/10 10:21:15;;;;;;;2.00;1.80;;;17.50;33.00;;;;;;5118670;28;20394;-41
2021/05/10 10:23:43;;;;;;;5.20;1.70;;;17.50;32.60;;;;;;5118957;28;20071;-41
2021/05/10 10:26:16;;;;;;;2.65;2.00;;;17.50;32.80;;;;;;5119057;28;20035;-41
2021/05/10 10:28:46;;;;;;;4.75;2.47;;;17.60;33.00;;;;;;5119116;28;20027;-43
2021/05/10 10:31:15;;;;;;;3.10;1.90;;;17.60;32.60;;;;;;5118965;28;20023;-42
2021/05/10 10:33:50;;;;;;;2.85;2.45;;;17.70;33.00;;;;;;5118253;28;20031;-41
2021/05/10 10:36:26;;;;;;;4.93;1.90;;;17.80;32.50;;;;;;5118446;28;20115;-41
2021/05/10 10:39:17;;;;;;;12.55;2.30;;;17.90;33.70;;;;;;5115369;28;20062;-41
2021/05/10 10:42:03;;;;;;;4.55;2.08;;;18.00;32.80;;;;;;5118635;28;20048;-41
2021/05/10 10:44:31;;;;;;;4.50;1.70;;;18.10;32.00;;;;;;5113707;28;20314;-41
2021/05/10 10:46:56;;;;;;;3.25;1.90;;;18.20;31.80;;;;;;5118207;28;20385;-42
2021/05/10 10:49:28;;;;;;;2.55;2.03;;;18.30;32.30;;;;;;5117641;28;20143;-42
2021/05/10 10:51:54;;;;;;;5.45;3.13;;;18.40;32.10;;;;;;5118381;28;20098;-40
2021/05/10 10:54:28;;;;;;;2.70;2.03;;;18.50;30.90;;;;;;5117503;28;20188;-40
2021/05/10 10:56:59;;;;;;;2.42;2.20;;;18.50;30.10;;;;;;5117751;28;20031;-40
2021/05/10 10:59:29;;;;;;;9.60;4.78;;;18.60;30.90;;;;;;5117380;28;20098;-41
2021/05/10 11:01:57;;;;;;;3.53;2.70;;;18.60;30.90;;;;;;5117873;28;20023;-41
2021/05/10 11:04:28;;;;;;;2.97;2.00;;;18.70;30.70;;;;;;5117038;28;20047;-41
2021/05/10 11:06:54;;;;;;;2.83;1.92;;;18.80;31.40;;;;;;5117600;28;20028;-41
2021/05/10 11:09:52;;;;;;;2.28;1.88;;;18.90;30.90;;;;;;5117195;28;20028;-41
2021/05/10 11:12:45;;;;;;;2.40;1.85;;;19.00;30.00;;;;;;5117525;28;20023;-42
2021/05/10 11:15:11;;;;;;;2.75;1.70;;;19.00;30.70;;;;;;5117399;28;20513;-41
2021/05/10 11:17:52;;;;;;;1.95;1.75;;;19.00;30.10;;;;;;5118021;28;20030;-40
2021/05/10 11:20:18;;;;;;;3.08;2.22;;;19.10;30.00;;;;;;5117587;28;20061;-41
2021/05/10 11:22:47;;;;;;;2.42;1.73;;;19.10;29.80;;;;;;5117649;28;20027;-41
2021/05/10 11:25:39;;;;;;;3.63;1.75;;;19.10;30.00;;;;;;5117257;28;20067;-42
2021/05/10 11:28:29;;;;;;;3.33;2.00;;;19.20;29.70;;;;;;5114081;28;20051;-40
2021/05/10 11:31:03;;;;;;;4.07;2.90;;;19.30;29.60;;;;;;5117339;28;20407;-40
2021/05/10 11:33:51;;;;;;;5.35;2.20;;;19.30;29.60;;;;;;5116808;28;20039;-40
2021/05/10 11:36:39;;;;;;;3.75;2.17;;;19.30;29.80;;;;;;5116731;28;20169;-41
2021/05/10 11:39:08;;;;;;;3.10;1.98;;;19.40;30.00;;;;;;5116653;28;20040;-40
2021/05/10 11:41:44;;;;;;;3.72;2.05;;;19.50;30.10;;;;;;5117295;28;20040;-41
2021/05/10 11:44:23;;;;;;;1.90;1.73;;;19.70;29.70;;;;;;5116664;28;20028;-41
2021/05/10 11:46:52;;;;;;;3.25;1.77;;;19.90;28.80;;;;;;5117023;28;20050;-40
2021/05/10 11:49:26;;;;;;;3.42;2.13;;;19.90;28.60;;;;;;5116466;28;20043;-40
2021/05/10 11:51:53;;;;;;;2.88;1.98;;;20.10;28.60;;;;;;5116924;28;20326;-40
2021/05/10 11:54:21;;;;;;;2.33;1.75;;;20.20;28.20;;;;;;5115985;28;20028;-41
2021/05/10 11:56:47;;;;;;;4.80;2.80;;;20.30;27.90;;;;;;5116645;28;20577;-40
2021/05/10 12:02:14;;;;;;;2.80;2.13;;;20.40;28.00;;;;;;5116849;28;20046;-40
2021/05/10 12:04:41;;;;;;;2.75;1.90;;;20.60;28.30;;;;;;5116310;28;20047;-40
2021/05/10 12:07:07;;;;;;;3.55;2.40;;;20.70;28.70;;;;;;5116896;28;20040;-40
2021/05/10 12:09:33;;;;;;;5.93;1.88;;;20.90;28.40;;;;;;5115759;28;20120;-40
2021/05/10 12:12:00;;;;;;;2.25;1.60;;;21.10;27.70;;;;;;5116456;28;20027;-40
2021/05/10 12:14:26;;;;;;;3.55;2.42;;;21.30;28.10;;;;;;5114331;28;20092;-41
2021/05/10 12:17:20;;;;;;;3.50;2.30;;;21.40;28.00;;;;;;5113730;28;20071;-40
2021/05/10 12:19:57;;;;;;;2.72;2.00;;;21.60;27.60;;;;;;5116041;28;20031;-41
2021/05/10 12:22:27;;;;;;;3.95;2.10;;;21.70;27.10;;;;;;5116199;28;20062;-40
2021/05/10 12:25:00;;;;;;;5.53;1.92;;;21.90;27.30;;;;;;5115820;28;20019;-41
2021/05/10 12:27:35;;;;;;;3.33;1.95;;;22.10;27.10;;;;;;5115862;28;20027;-40
2021/05/10 12:30:01;;;;;;;1.65;1.52;;;22.30;26.50;;;;;;5115729;28;20418;-40
2021/05/10 12:32:27;;;;;;;6.88;3.53;;;22.40;27.20;;;;;;5116037;28;20036;-41
2021/05/10 12:34:53;;;;;;;5.18;1.92;;;22.50;27.20;;;;;;5115693;28;20426;-41
2021/05/10 12:37:19;;;;;;;4.80;1.90;;;22.70;27.00;;;;;;5115596;28;20052;-40
2021/05/10 12:39:47;;;;;;;3.45;2.10;;;22.80;26.60;;;;;;5115990;28;20035;-40
2021/05/10 12:42:18;;;;;;;2.47;2.00;;;22.90;26.10;;;;;;5115658;28;20491;-40
2021/05/10 12:44:57;;;;;;;2.67;2.00;;;22.90;26.50;;;;;;5114358;28;20426;-41
2021/05/10 12:47:44;;;;;;;4.68;2.17;;;23.10;26.10;;;;;;5115995;28;20036;-41
2021/05/10 12:50:13;;;;;;;4.72;2.15;;;23.20;26.40;;;;;;5115263;28;20427;-41
2021/05/10 12:52:49;;;;;;;2.58;1.70;;;23.40;26.50;;;;;;5115416;28;20096;-40
2021/05/10 12:55:19;;;;;;;2.13;1.75;;;23.50;26.50;;;;;;5115906;28;20030;-40
2021/05/10 12:57:45;;;;;;;9.32;2.13;;;23.60;26.00;;;;;;5115664;28;20036;-41
2021/05/10 13:00:27;;;;;;;1.85;1.50;;;23.70;26.00;;;;;;5115763;28;20080;-40
2021/05/10 13:02:53;;;;;;;2.10;1.60;;;23.90;25.40;;;;;;5115629;28;20039;-41
2021/05/10 13:05:35;;;;;;;4.25;2.00;;;24.10;25.90;;;;;;5115983;28;20024;-40
2021/05/10 13:08:06;;;;;;;2.75;1.95;;;24.20;25.40;;;;;;5115398;28;20038;-40